SND2 YMAV-YWKS
Flight info
| Callsign | SND2 |
|---|---|
| Flight time | N/A |
| Altitude | 36000 |
| Route | AV DCT KII DCT 50S140E 60S130E/N0450F380 64S120E |
| Aircraft | A319/M-SDE3FGHIRWY/LB1 |
Departure
| Time | 2026-04-14 03:54 |
|---|---|
| Airport | Melbourne Avalon International Airport (YMAV) |
Arrival
| Time | N/A |
|---|---|
| Airport | Wilkins Runway (YWKS) |
| Time | Latitude | Longitude | Altitude | Speed | Heading |
|---|---|---|---|---|---|
| 2026-04-14 03:47 | -38.02720 | 144.47318 | 31 ft | 0 kts | 9° |
| 2026-04-14 03:48 | -38.02732 | 144.47315 | 31 ft | 2 kts | 9° |
| 2026-04-14 03:48 | -38.02748 | 144.47312 | 31 ft | 2 kts | 9° |
| 2026-04-14 03:48 | -38.02763 | 144.47309 | 30 ft | 2 kts | 9° |
| 2026-04-14 03:48 | -38.02779 | 144.47306 | 31 ft | 2 kts | 9° |
| 2026-04-14 03:49 | -38.02794 | 144.47307 | 31 ft | 2 kts | 326° |
| 2026-04-14 03:49 | -38.02801 | 144.47313 | 32 ft | 0 kts | 302° |
| 2026-04-14 03:51 | -38.02801 | 144.47312 | 32 ft | 1 kts | 302° |
| 2026-04-14 03:51 | -38.02794 | 144.47280 | 32 ft | 6 kts | 279° |
| 2026-04-14 03:52 | -38.02786 | 144.47225 | 32 ft | 7 kts | 279° |
| 2026-04-14 03:52 | -38.02776 | 144.47166 | 32 ft | 7 kts | 293° |
| 2026-04-14 03:52 | -38.02748 | 144.47112 | 31 ft | 8 kts | 303° |
| 2026-04-14 03:52 | -38.02738 | 144.47040 | 31 ft | 9 kts | 275° |
| 2026-04-14 03:53 | -38.02734 | 144.46956 | 30 ft | 9 kts | 261° |
| 2026-04-14 03:53 | -38.02790 | 144.46930 | 29 ft | 11 kts | 186° |
| 2026-04-14 03:53 | -38.03003 | 144.46894 | 32 ft | 63 kts | 188° |
| 2026-04-14 03:53 | -38.03654 | 144.46785 | 35 ft | 124 kts | 187° |
| 2026-04-14 03:54 | -38.04668 | 144.46622 | 129 ft | 160 kts | 192° |
| 2026-04-14 03:54 | -38.05768 | 144.46407 | 677 ft | 159 kts | 198° |
| 2026-04-14 03:54 | -38.06835 | 144.46094 | 1259 ft | 159 kts | 200° |
| 2026-04-14 03:54 | -38.07914 | 144.45753 | 1820 ft | 162 kts | 199° |
| 2026-04-14 03:55 | -38.09079 | 144.45375 | 2136 ft | 184 kts | 199° |
| 2026-04-14 03:55 | -38.10406 | 144.44942 | 2392 ft | 209 kts | 199° |
| 2026-04-14 03:55 | -38.11891 | 144.44464 | 2758 ft | 232 kts | 198° |
| 2026-04-14 03:55 | -38.13531 | 144.43943 | 3233 ft | 250 kts | 198° |
| 2026-04-14 03:56 | -38.15234 | 144.43409 | 4123 ft | 254 kts | 197° |
| 2026-04-14 03:56 | -38.16955 | 144.42874 | 5082 ft | 254 kts | 197° |
| 2026-04-14 03:56 | -38.18689 | 144.42333 | 5964 ft | 258 kts | 197° |
| 2026-04-14 03:56 | -38.20448 | 144.41783 | 6773 ft | 262 kts | 197° |
| 2026-04-14 03:57 | -38.22232 | 144.41221 | 7547 ft | 266 kts | 198° |
| 2026-04-14 03:57 | -38.24039 | 144.40650 | 8319 ft | 270 kts | 198° |
| 2026-04-14 03:57 | -38.25871 | 144.40072 | 9100 ft | 273 kts | 199° |
| 2026-04-14 03:57 | -38.27731 | 144.39488 | 9886 ft | 277 kts | 199° |
| 2026-04-14 03:58 | -38.29637 | 144.38887 | 10355 ft | 292 kts | 199° |
| 2026-04-14 03:58 | -38.31688 | 144.38232 | 10569 ft | 315 kts | 199° |
| 2026-04-14 03:58 | -38.33856 | 144.37545 | 11111 ft | 324 kts | 198° |
| 2026-04-14 03:58 | -38.36034 | 144.36861 | 11774 ft | 328 kts | 199° |
| 2026-04-14 03:59 | -38.38268 | 144.36161 | 12471 ft | 332 kts | 199° |
| 2026-04-14 03:59 | -38.40521 | 144.35453 | 13155 ft | 336 kts | 199° |
| 2026-04-14 03:59 | -38.42801 | 144.34738 | 13827 ft | 339 kts | 199° |
| 2026-04-14 03:59 | -38.45109 | 144.34013 | 14433 ft | 343 kts | 199° |
| 2026-04-14 04:00 | -38.47434 | 144.33278 | 15027 ft | 346 kts | 199° |
| 2026-04-14 04:00 | -38.49776 | 144.32534 | 15628 ft | 348 kts | 199° |
| 2026-04-14 04:00 | -38.52136 | 144.31781 | 16234 ft | 351 kts | 199° |
| 2026-04-14 04:00 | -38.54514 | 144.31023 | 16835 ft | 354 kts | 199° |
| 2026-04-14 04:01 | -38.56910 | 144.30265 | 17436 ft | 356 kts | 199° |
| 2026-04-14 04:01 | -38.59330 | 144.29500 | 18013 ft | 359 kts | 199° |
| 2026-04-14 04:01 | -38.61764 | 144.28728 | 18578 ft | 362 kts | 199° |
| 2026-04-14 04:01 | -38.64223 | 144.27941 | 19069 ft | 365 kts | 199° |
| 2026-04-14 04:02 | -38.66698 | 144.27149 | 19571 ft | 368 kts | 199° |
| 2026-04-14 04:02 | -38.68353 | 144.26620 | 19899 ft | 370 kts | 199° |
| 2026-04-14 04:02 | -38.70862 | 144.25822 | 20400 ft | 373 kts | 199° |
| 2026-04-14 04:02 | -38.73397 | 144.25016 | 20890 ft | 377 kts | 199° |
| 2026-04-14 04:03 | -38.75947 | 144.24203 | 21373 ft | 379 kts | 199° |
| 2026-04-14 04:03 | -38.78520 | 144.23382 | 21865 ft | 382 kts | 199° |
| 2026-04-14 04:03 | -38.81960 | 144.22285 | 22509 ft | 386 kts | 199° |
| 2026-04-14 04:03 | -38.83729 | 144.21720 | 22832 ft | 388 kts | 199° |
| 2026-04-14 04:04 | -38.86358 | 144.20878 | 23300 ft | 391 kts | 199° |
| 2026-04-14 04:04 | -38.89011 | 144.20027 | 23749 ft | 394 kts | 199° |
| 2026-04-14 04:04 | -38.91651 | 144.19183 | 24121 ft | 397 kts | 200° |
| 2026-04-14 04:04 | -38.94335 | 144.18319 | 24500 ft | 399 kts | 200° |
| 2026-04-14 04:05 | -38.97037 | 144.17452 | 24871 ft | 401 kts | 200° |
| 2026-04-14 04:05 | -38.99758 | 144.16580 | 25244 ft | 404 kts | 200° |
| 2026-04-14 04:05 | -39.02489 | 144.15705 | 25621 ft | 406 kts | 200° |
| 2026-04-14 04:05 | -39.05236 | 144.14820 | 25995 ft | 407 kts | 200° |
| 2026-04-14 04:06 | -39.07989 | 144.13932 | 26356 ft | 409 kts | 200° |
| 2026-04-14 04:06 | -39.10763 | 144.13036 | 26711 ft | 411 kts | 200° |
| 2026-04-14 04:06 | -39.13546 | 144.12135 | 27051 ft | 413 kts | 200° |
| 2026-04-14 04:06 | -39.16343 | 144.11233 | 27407 ft | 415 kts | 200° |
| 2026-04-14 04:07 | -39.19154 | 144.10325 | 27757 ft | 417 kts | 200° |
| 2026-04-14 04:07 | -39.21978 | 144.09410 | 28115 ft | 419 kts | 201° |
| 2026-04-14 04:07 | -39.24812 | 144.08490 | 28456 ft | 421 kts | 201° |
| 2026-04-14 04:07 | -39.27665 | 144.07563 | 28789 ft | 423 kts | 201° |
| 2026-04-14 04:08 | -39.30527 | 144.06635 | 29113 ft | 426 kts | 201° |
| 2026-04-14 04:08 | -39.33408 | 144.05702 | 29430 ft | 428 kts | 201° |
| 2026-04-14 04:08 | -39.36305 | 144.04763 | 29742 ft | 430 kts | 201° |
| 2026-04-14 04:08 | -39.39209 | 144.03819 | 30080 ft | 432 kts | 201° |
| 2026-04-14 04:09 | -39.42128 | 144.02866 | 30345 ft | 433 kts | 201° |
| 2026-04-14 04:09 | -39.45059 | 144.01904 | 30598 ft | 435 kts | 201° |
| 2026-04-14 04:09 | -39.47999 | 144.00940 | 30854 ft | 437 kts | 201° |
| 2026-04-14 04:09 | -39.50912 | 143.99991 | 31119 ft | 438 kts | 201° |
| 2026-04-14 04:10 | -39.53864 | 143.99033 | 31480 ft | 437 kts | 201° |
| 2026-04-14 04:10 | -39.56805 | 143.98079 | 31846 ft | 435 kts | 202° |
| 2026-04-14 04:10 | -39.59742 | 143.97124 | 32206 ft | 434 kts | 202° |
| 2026-04-14 04:10 | -39.62664 | 143.96171 | 32566 ft | 433 kts | 202° |
| 2026-04-14 04:11 | -39.65583 | 143.95216 | 32923 ft | 431 kts | 202° |
| 2026-04-14 04:11 | -39.68492 | 143.94261 | 33282 ft | 430 kts | 202° |
| 2026-04-14 04:11 | -39.71392 | 143.93311 | 33639 ft | 429 kts | 202° |
| 2026-04-14 04:11 | -39.74289 | 143.92364 | 33975 ft | 429 kts | 202° |
| 2026-04-14 04:12 | -39.77180 | 143.91417 | 34288 ft | 428 kts | 203° |
| 2026-04-14 04:12 | -39.80063 | 143.90466 | 34571 ft | 427 kts | 203° |
| 2026-04-14 04:12 | -39.82943 | 143.89513 | 34856 ft | 426 kts | 203° |
| 2026-04-14 04:12 | -39.85814 | 143.88561 | 35131 ft | 426 kts | 203° |
| 2026-04-14 04:13 | -39.88683 | 143.87612 | 35422 ft | 425 kts | 204° |
| 2026-04-14 04:13 | -39.91545 | 143.86672 | 35674 ft | 424 kts | 204° |
| 2026-04-14 04:13 | -39.94412 | 143.85748 | 35917 ft | 424 kts | 203° |
| 2026-04-14 04:13 | -39.97278 | 143.84833 | 36078 ft | 424 kts | 203° |
| 2026-04-14 04:14 | -40.00130 | 143.83920 | 36117 ft | 421 kts | 203° |
| 2026-04-14 04:14 | -40.05810 | 143.82101 | 36129 ft | 420 kts | 204° |
| 2026-04-14 04:15 | -40.11470 | 143.80281 | 36110 ft | 419 kts | 204° |
| 2026-04-14 04:15 | -40.17128 | 143.78449 | 36115 ft | 419 kts | 204° |
| 2026-04-14 04:16 | -40.22746 | 143.76630 | 36105 ft | 418 kts | 204° |
| 2026-04-14 04:16 | -40.28398 | 143.74796 | 36120 ft | 418 kts | 204° |
| 2026-04-14 04:17 | -40.34047 | 143.72961 | 36111 ft | 418 kts | 204° |
| 2026-04-14 04:17 | -40.39689 | 143.71127 | 36104 ft | 417 kts | 204° |
| 2026-04-14 04:18 | -40.45320 | 143.69288 | 36119 ft | 417 kts | 204° |
| 2026-04-14 04:18 | -40.50962 | 143.67446 | 36108 ft | 417 kts | 204° |
| 2026-04-14 04:19 | -40.56595 | 143.65602 | 36104 ft | 417 kts | 204° |
| 2026-04-14 04:19 | -40.62231 | 143.63753 | 36098 ft | 417 kts | 204° |
| 2026-04-14 04:20 | -40.67820 | 143.61916 | 36088 ft | 417 kts | 204° |
| 2026-04-14 04:20 | -40.73444 | 143.60064 | 36085 ft | 417 kts | 204° |
| 2026-04-14 04:21 | -40.79069 | 143.58210 | 36095 ft | 417 kts | 204° |
| 2026-04-14 04:21 | -40.84697 | 143.56355 | 36086 ft | 417 kts | 204° |
| 2026-04-14 04:22 | -40.90323 | 143.54490 | 36098 ft | 417 kts | 205° |
| 2026-04-14 04:22 | -40.95943 | 143.52629 | 36102 ft | 416 kts | 205° |
| 2026-04-14 04:23 | -41.01565 | 143.50768 | 36084 ft | 416 kts | 205° |
| 2026-04-14 04:23 | -41.07183 | 143.48896 | 36072 ft | 416 kts | 205° |
| 2026-04-14 04:24 | -41.12796 | 143.47021 | 36062 ft | 416 kts | 205° |
| 2026-04-14 04:24 | -41.18408 | 143.45153 | 36085 ft | 416 kts | 205° |
| 2026-04-14 04:25 | -41.23985 | 143.43291 | 36082 ft | 415 kts | 205° |
| 2026-04-14 04:25 | -41.29592 | 143.41414 | 36066 ft | 415 kts | 205° |
| 2026-04-14 04:26 | -41.35194 | 143.39540 | 36080 ft | 415 kts | 205° |
| 2026-04-14 04:26 | -41.40790 | 143.37662 | 36061 ft | 415 kts | 205° |
| 2026-04-14 04:27 | -41.46392 | 143.35770 | 36053 ft | 415 kts | 205° |
| 2026-04-14 04:27 | -41.51988 | 143.33884 | 36070 ft | 415 kts | 205° |
| 2026-04-14 04:28 | -41.57583 | 143.31999 | 36055 ft | 414 kts | 205° |
| 2026-04-14 04:28 | -41.63176 | 143.30112 | 36058 ft | 414 kts | 205° |
| 2026-04-14 04:29 | -41.68732 | 143.28226 | 36051 ft | 414 kts | 205° |
| 2026-04-14 04:29 | -41.74320 | 143.26324 | 36060 ft | 414 kts | 205° |
| 2026-04-14 04:30 | -41.79905 | 143.24429 | 36046 ft | 414 kts | 205° |
| 2026-04-14 04:30 | -41.85493 | 143.22521 | 36044 ft | 414 kts | 205° |
| 2026-04-14 04:31 | -41.91086 | 143.20613 | 36071 ft | 415 kts | 205° |
| 2026-04-14 04:31 | -41.99473 | 143.17739 | 36040 ft | 414 kts | 206° |
| 2026-04-14 04:32 | -42.05062 | 143.15816 | 36035 ft | 415 kts | 206° |
| 2026-04-14 04:32 | -42.10650 | 143.13895 | 36059 ft | 415 kts | 206° |
| 2026-04-14 04:33 | -42.16242 | 143.11975 | 36051 ft | 415 kts | 206° |
| 2026-04-14 04:33 | -42.21830 | 143.10049 | 36044 ft | 415 kts | 206° |
| 2026-04-14 04:34 | -42.27423 | 143.08123 | 36063 ft | 415 kts | 206° |
| 2026-04-14 04:34 | -42.32978 | 143.06211 | 36049 ft | 414 kts | 206° |
| 2026-04-14 04:35 | -42.38560 | 143.04278 | 36034 ft | 414 kts | 206° |
| 2026-04-14 04:35 | -42.44142 | 143.02330 | 36022 ft | 414 kts | 206° |
| 2026-04-14 04:36 | -42.49724 | 143.00381 | 36023 ft | 414 kts | 206° |
| 2026-04-14 04:36 | -42.55305 | 142.98436 | 36018 ft | 414 kts | 206° |
| 2026-04-14 04:37 | -42.60891 | 142.96490 | 36020 ft | 414 kts | 206° |
| 2026-04-14 04:37 | -42.66467 | 142.94535 | 36026 ft | 413 kts | 206° |
| 2026-04-14 04:38 | -42.72005 | 142.92599 | 36026 ft | 410 kts | 207° |
| 2026-04-14 04:38 | -42.77523 | 142.90666 | 36018 ft | 410 kts | 207° |
| 2026-04-14 04:39 | -42.83049 | 142.88717 | 36012 ft | 410 kts | 207° |
| 2026-04-14 04:39 | -42.88531 | 142.86786 | 36025 ft | 410 kts | 207° |
| 2026-04-14 04:40 | -42.94051 | 142.84835 | 36017 ft | 409 kts | 207° |
| 2026-04-14 04:41 | -43.02325 | 142.81912 | 36001 ft | 409 kts | 207° |
| 2026-04-14 04:41 | -43.07836 | 142.79954 | 36050 ft | 409 kts | 207° |
| 2026-04-14 04:42 | -43.13339 | 142.78002 | 35998 ft | 408 kts | 207° |
| 2026-04-14 04:42 | -43.18831 | 142.76044 | 35987 ft | 408 kts | 207° |
| 2026-04-14 04:43 | -43.24319 | 142.74088 | 36017 ft | 408 kts | 208° |
| 2026-04-14 04:43 | -43.29808 | 142.72128 | 36008 ft | 407 kts | 208° |
| 2026-04-14 04:44 | -43.35284 | 142.70162 | 35988 ft | 407 kts | 208° |
| 2026-04-14 04:44 | -43.40759 | 142.68190 | 35981 ft | 406 kts | 208° |
| 2026-04-14 04:45 | -43.46227 | 142.66221 | 36036 ft | 406 kts | 208° |
| 2026-04-14 04:45 | -43.51689 | 142.64260 | 35981 ft | 405 kts | 208° |
| 2026-04-14 04:46 | -43.57144 | 142.62302 | 35968 ft | 405 kts | 208° |
| 2026-04-14 04:46 | -43.62555 | 142.60345 | 35951 ft | 405 kts | 208° |
| 2026-04-14 04:47 | -43.68006 | 142.58375 | 35975 ft | 405 kts | 208° |
| 2026-04-14 04:47 | -43.73448 | 142.56385 | 35968 ft | 404 kts | 208° |
| 2026-04-14 04:48 | -43.78888 | 142.54405 | 35956 ft | 404 kts | 208° |
| 2026-04-14 04:48 | -43.84333 | 142.52429 | 35987 ft | 404 kts | 208° |
| 2026-04-14 04:49 | -43.89770 | 142.50451 | 35959 ft | 403 kts | 208° |
| 2026-04-14 04:49 | -43.95191 | 142.48468 | 35945 ft | 403 kts | 208° |
| 2026-04-14 04:50 | -44.00615 | 142.46475 | 35932 ft | 403 kts | 208° |
| 2026-04-14 04:50 | -44.06046 | 142.44475 | 35962 ft | 404 kts | 208° |
| 2026-04-14 04:51 | -44.11475 | 142.42480 | 35949 ft | 404 kts | 208° |
| 2026-04-14 04:51 | -44.16909 | 142.40485 | 35944 ft | 404 kts | 208° |
| 2026-04-14 04:52 | -44.22336 | 142.38478 | 35940 ft | 404 kts | 208° |
| 2026-04-14 04:52 | -44.27737 | 142.36482 | 35935 ft | 403 kts | 208° |
| 2026-04-14 04:53 | -44.33149 | 142.34487 | 35921 ft | 402 kts | 208° |
| 2026-04-14 04:53 | -44.38555 | 142.32480 | 35918 ft | 402 kts | 208° |
| 2026-04-14 04:54 | -44.43095 | 142.30791 | 35909 ft | 403 kts | 208° |
| 2026-04-14 04:54 | -44.48479 | 142.28789 | 35911 ft | 403 kts | 208° |
| 2026-04-14 04:55 | -44.53893 | 142.26763 | 35912 ft | 403 kts | 208° |
| 2026-04-14 04:55 | -44.59318 | 142.24730 | 35911 ft | 403 kts | 208° |
| 2026-04-14 04:56 | -44.64744 | 142.22695 | 35917 ft | 403 kts | 208° |
| 2026-04-14 04:56 | -44.70166 | 142.20658 | 35914 ft | 403 kts | 208° |
| 2026-04-14 04:57 | -44.75577 | 142.18628 | 35903 ft | 403 kts | 208° |
| 2026-04-14 04:57 | -44.80989 | 142.16579 | 35899 ft | 403 kts | 208° |
| 2026-04-14 04:58 | -44.86375 | 142.14545 | 35903 ft | 403 kts | 208° |
| 2026-04-14 04:58 | -44.91803 | 142.12496 | 35923 ft | 404 kts | 208° |
| 2026-04-14 04:59 | -44.97232 | 142.10440 | 35912 ft | 404 kts | 208° |
| 2026-04-14 04:59 | -45.02666 | 142.08378 | 35908 ft | 404 kts | 208° |
| 2026-04-14 05:00 | -45.08100 | 142.06311 | 35944 ft | 405 kts | 208° |
| 2026-04-14 05:00 | -45.13549 | 142.04234 | 35880 ft | 405 kts | 208° |
| 2026-04-14 05:01 | -45.18963 | 142.02164 | 35876 ft | 406 kts | 208° |
| 2026-04-14 05:01 | -45.24417 | 142.00080 | 35868 ft | 407 kts | 207° |
| 2026-04-14 05:02 | -45.29884 | 141.97989 | 35918 ft | 407 kts | 207° |
| 2026-04-14 05:02 | -45.35354 | 141.95880 | 35897 ft | 407 kts | 207° |
| 2026-04-14 05:03 | -45.40827 | 141.93770 | 35890 ft | 408 kts | 207° |
| 2026-04-14 05:03 | -45.46303 | 141.91658 | 35881 ft | 408 kts | 207° |
| 2026-04-14 05:04 | -45.51789 | 141.89535 | 35884 ft | 410 kts | 207° |
| 2026-04-14 05:04 | -45.57291 | 141.87408 | 35866 ft | 410 kts | 207° |
| 2026-04-14 05:05 | -45.62797 | 141.85268 | 35856 ft | 410 kts | 207° |
| 2026-04-14 05:05 | -45.68311 | 141.83117 | 35858 ft | 411 kts | 207° |
| 2026-04-14 05:06 | -45.73793 | 141.80980 | 35861 ft | 412 kts | 206° |
| 2026-04-14 05:06 | -45.79315 | 141.78825 | 35850 ft | 411 kts | 206° |
| 2026-04-14 05:07 | -45.84840 | 141.76670 | 35849 ft | 412 kts | 206° |
| 2026-04-14 05:07 | -45.90373 | 141.74504 | 35856 ft | 412 kts | 206° |
| 2026-04-14 05:08 | -45.95913 | 141.72319 | 35866 ft | 414 kts | 206° |
| 2026-04-14 05:08 | -46.01468 | 141.70123 | 35854 ft | 414 kts | 206° |
| 2026-04-14 05:09 | -46.07040 | 141.67924 | 35848 ft | 415 kts | 206° |
| 2026-04-14 05:09 | -46.12610 | 141.65733 | 35842 ft | 415 kts | 206° |
| 2026-04-14 05:10 | -46.18186 | 141.63524 | 35870 ft | 415 kts | 206° |
| 2026-04-14 05:10 | -46.23758 | 141.61301 | 35856 ft | 415 kts | 206° |
| 2026-04-14 05:11 | -46.29331 | 141.59089 | 35844 ft | 415 kts | 206° |
| 2026-04-14 05:11 | -46.34903 | 141.56877 | 35839 ft | 415 kts | 206° |
| 2026-04-14 05:12 | -46.40481 | 141.54650 | 35849 ft | 415 kts | 205° |
| 2026-04-14 05:12 | -46.46051 | 141.52416 | 35831 ft | 415 kts | 205° |
| 2026-04-14 05:13 | -46.51619 | 141.50176 | 35828 ft | 415 kts | 205° |
| 2026-04-14 05:13 | -46.57186 | 141.47935 | 35822 ft | 415 kts | 205° |
| 2026-04-14 05:14 | -46.62713 | 141.45698 | 35815 ft | 415 kts | 205° |
| 2026-04-14 05:14 | -46.68280 | 141.43454 | 35809 ft | 415 kts | 205° |
| 2026-04-14 05:15 | -46.73848 | 141.41215 | 35804 ft | 415 kts | 205° |
| 2026-04-14 05:15 | -46.79415 | 141.38950 | 35811 ft | 415 kts | 205° |
| 2026-04-14 05:16 | -46.84984 | 141.36678 | 35814 ft | 417 kts | 205° |
| 2026-04-14 05:16 | -46.90582 | 141.34406 | 35797 ft | 417 kts | 205° |
| 2026-04-14 05:17 | -46.96176 | 141.32131 | 35784 ft | 417 kts | 205° |
| 2026-04-14 05:17 | -47.01770 | 141.29840 | 35781 ft | 417 kts | 205° |
| 2026-04-14 05:18 | -47.07322 | 141.27553 | 35803 ft | 417 kts | 205° |
| 2026-04-14 05:18 | -47.12916 | 141.25248 | 35786 ft | 417 kts | 205° |
| 2026-04-14 05:19 | -47.18503 | 141.22949 | 35780 ft | 417 kts | 205° |
| 2026-04-14 05:19 | -47.24093 | 141.20640 | 35786 ft | 418 kts | 205° |
| 2026-04-14 05:20 | -47.29697 | 141.18326 | 35770 ft | 419 kts | 204° |
| 2026-04-14 05:20 | -47.35307 | 141.16005 | 35757 ft | 419 kts | 204° |
| 2026-04-14 05:21 | -47.40920 | 141.13658 | 35753 ft | 419 kts | 204° |
| 2026-04-14 05:21 | -47.46536 | 141.11317 | 35740 ft | 419 kts | 204° |
| 2026-04-14 05:22 | -47.52153 | 141.08980 | 35756 ft | 420 kts | 204° |
| 2026-04-14 05:22 | -47.57776 | 141.06632 | 35749 ft | 420 kts | 204° |
| 2026-04-14 05:23 | -47.63398 | 141.04265 | 35744 ft | 420 kts | 204° |
| 2026-04-14 05:23 | -47.69026 | 141.01897 | 35736 ft | 421 kts | 204° |
| 2026-04-14 05:24 | -47.74664 | 140.99533 | 35750 ft | 421 kts | 204° |
| 2026-04-14 05:24 | -47.80306 | 140.97155 | 35736 ft | 421 kts | 204° |
| 2026-04-14 05:25 | -47.85922 | 140.94782 | 35713 ft | 422 kts | 204° |
| 2026-04-14 05:25 | -47.91568 | 140.92390 | 35709 ft | 422 kts | 204° |
| 2026-04-14 05:26 | -47.97215 | 140.89986 | 35719 ft | 422 kts | 203° |
| 2026-04-14 05:26 | -48.02857 | 140.87582 | 35710 ft | 422 kts | 203° |
| 2026-04-14 05:27 | -48.08511 | 140.85169 | 35704 ft | 422 kts | 203° |
| 2026-04-14 05:27 | -48.14174 | 140.82747 | 35708 ft | 424 kts | 203° |
| 2026-04-14 05:28 | -48.19851 | 140.80319 | 35706 ft | 424 kts | 202° |
| 2026-04-14 05:28 | -48.25525 | 140.77875 | 35697 ft | 424 kts | 203° |
| 2026-04-14 05:29 | -48.31201 | 140.75412 | 35687 ft | 424 kts | 203° |
| 2026-04-14 05:29 | -48.36878 | 140.72967 | 35676 ft | 425 kts | 202° |
| 2026-04-14 05:30 | -48.42522 | 140.70527 | 35689 ft | 425 kts | 202° |
| 2026-04-14 05:30 | -48.48201 | 140.68067 | 35677 ft | 425 kts | 202° |
| 2026-04-14 05:31 | -48.53881 | 140.65606 | 35673 ft | 425 kts | 202° |
| 2026-04-14 05:31 | -48.59567 | 140.63128 | 35666 ft | 425 kts | 202° |
| 2026-04-14 05:32 | -48.65248 | 140.60636 | 35656 ft | 425 kts | 202° |
| 2026-04-14 05:32 | -48.70940 | 140.58145 | 35664 ft | 426 kts | 202° |
| 2026-04-14 05:33 | -48.76641 | 140.55652 | 35649 ft | 427 kts | 202° |
| 2026-04-14 05:33 | -48.82344 | 140.53132 | 35650 ft | 427 kts | 202° |
| 2026-04-14 05:34 | -48.90916 | 140.49342 | 35650 ft | 428 kts | 202° |
| 2026-04-14 05:34 | -48.96595 | 140.46842 | 35638 ft | 428 kts | 202° |
| 2026-04-14 05:35 | -49.02307 | 140.44309 | 35655 ft | 428 kts | 202° |
| 2026-04-14 05:35 | -49.08021 | 140.41755 | 35641 ft | 428 kts | 202° |
| 2026-04-14 05:36 | -49.13739 | 140.39210 | 35628 ft | 428 kts | 202° |
| 2026-04-14 05:36 | -49.19463 | 140.36647 | 35624 ft | 428 kts | 202° |
| 2026-04-14 05:37 | -49.25188 | 140.34082 | 35622 ft | 429 kts | 202° |
| 2026-04-14 05:37 | -49.30917 | 140.31519 | 35607 ft | 429 kts | 202° |
| 2026-04-14 05:38 | -49.36644 | 140.28948 | 35603 ft | 429 kts | 202° |
| 2026-04-14 05:38 | -49.42379 | 140.26357 | 35613 ft | 429 kts | 201° |
| 2026-04-14 05:39 | -49.48075 | 140.23785 | 35606 ft | 429 kts | 201° |
| 2026-04-14 05:39 | -49.53809 | 140.21186 | 35592 ft | 430 kts | 201° |
| 2026-04-14 05:40 | -49.59544 | 140.18576 | 35598 ft | 430 kts | 202° |
| 2026-04-14 05:40 | -49.65280 | 140.15941 | 35607 ft | 430 kts | 202° |
| 2026-04-14 05:41 | -49.71024 | 140.13320 | 35592 ft | 430 kts | 201° |
| 2026-04-14 05:41 | -49.76768 | 140.10706 | 35585 ft | 430 kts | 201° |
| 2026-04-14 05:42 | -49.82470 | 140.08098 | 35581 ft | 430 kts | 201° |
| 2026-04-14 05:42 | -49.88214 | 140.05452 | 35588 ft | 430 kts | 202° |
| 2026-04-14 05:43 | -49.93946 | 140.02794 | 35577 ft | 430 kts | 201° |
| 2026-04-14 05:43 | -49.99671 | 140.00099 | 35575 ft | 428 kts | 205° |
| 2026-04-14 05:44 | -50.05031 | 139.96218 | 35559 ft | 425 kts | 211° |
| 2026-04-14 05:44 | -50.10352 | 139.92196 | 35562 ft | 425 kts | 211° |
| 2026-04-14 05:45 | -50.15682 | 139.88162 | 35553 ft | 425 kts | 210° |
| 2026-04-14 05:45 | -50.20102 | 139.84805 | 35545 ft | 425 kts | 211° |
| 2026-04-14 05:46 | -50.25421 | 139.80761 | 35550 ft | 425 kts | 210° |
| 2026-04-14 05:46 | -50.30740 | 139.76702 | 35544 ft | 426 kts | 210° |
| 2026-04-14 05:47 | -50.36060 | 139.72632 | 35532 ft | 425 kts | 209° |
| 2026-04-14 05:47 | -50.41380 | 139.68556 | 35524 ft | 425 kts | 210° |
| 2026-04-14 05:48 | -50.46694 | 139.64476 | 35521 ft | 425 kts | 210° |
| 2026-04-14 05:48 | -50.51995 | 139.60383 | 35523 ft | 425 kts | 210° |
| 2026-04-14 05:49 | -50.57298 | 139.56296 | 35523 ft | 425 kts | 210° |
| 2026-04-14 05:49 | -50.62607 | 139.52195 | 35503 ft | 425 kts | 211° |
| 2026-04-14 05:50 | -50.67908 | 139.48072 | 35499 ft | 425 kts | 211° |
| 2026-04-14 05:50 | -50.73210 | 139.43939 | 35498 ft | 425 kts | 212° |
| 2026-04-14 05:51 | -50.78511 | 139.39810 | 35498 ft | 425 kts | 211° |
| 2026-04-14 05:51 | -50.83816 | 139.35672 | 35492 ft | 425 kts | 211° |
| 2026-04-14 05:52 | -50.89074 | 139.31549 | 35485 ft | 425 kts | 212° |
| 2026-04-14 05:52 | -50.94369 | 139.27373 | 35481 ft | 425 kts | 211° |
| 2026-04-14 05:53 | -50.99659 | 139.23197 | 35489 ft | 424 kts | 211° |
| 2026-04-14 05:53 | -51.04942 | 139.19028 | 35495 ft | 424 kts | 211° |
| 2026-04-14 05:54 | -51.10228 | 139.14842 | 35463 ft | 424 kts | 210° |
| 2026-04-14 05:54 | -51.15505 | 139.10643 | 35458 ft | 424 kts | 210° |
| 2026-04-14 05:55 | -51.20784 | 139.06435 | 35462 ft | 424 kts | 210° |
| 2026-04-14 05:55 | -51.26056 | 139.02235 | 35467 ft | 423 kts | 209° |
| 2026-04-14 05:56 | -51.31324 | 138.98028 | 35460 ft | 423 kts | 210° |
| 2026-04-14 05:56 | -51.36584 | 138.93809 | 35450 ft | 423 kts | 210° |
| 2026-04-14 05:57 | -51.41816 | 138.89599 | 35444 ft | 424 kts | 210° |
| 2026-04-14 05:57 | -51.47080 | 138.85352 | 35439 ft | 423 kts | 210° |
| 2026-04-14 05:58 | -51.52340 | 138.81095 | 35447 ft | 423 kts | 211° |
| 2026-04-14 05:58 | -51.57590 | 138.76835 | 35441 ft | 422 kts | 211° |
| 2026-04-14 05:59 | -51.62835 | 138.72581 | 35422 ft | 422 kts | 211° |
| 2026-04-14 05:59 | -51.68084 | 138.68304 | 35407 ft | 423 kts | 210° |
| 2026-04-14 06:00 | -51.73327 | 138.64015 | 35422 ft | 422 kts | 211° |
| 2026-04-14 06:00 | -51.78571 | 138.59727 | 35415 ft | 422 kts | 212° |
| 2026-04-14 06:01 | -51.83803 | 138.55435 | 35414 ft | 421 kts | 210° |
| 2026-04-14 06:01 | -51.89032 | 138.51121 | 35394 ft | 422 kts | 210° |
| 2026-04-14 06:02 | -51.94281 | 138.46794 | 35384 ft | 424 kts | 210° |
| 2026-04-14 06:02 | -51.99544 | 138.42439 | 35387 ft | 425 kts | 211° |
| 2026-04-14 06:03 | -52.04809 | 138.38070 | 35387 ft | 425 kts | 211° |
| 2026-04-14 06:04 | -52.12687 | 138.31485 | 35366 ft | 424 kts | 210° |
| 2026-04-14 06:04 | -52.17911 | 138.27118 | 35376 ft | 425 kts | 210° |
| 2026-04-14 06:05 | -52.23176 | 138.22718 | 35362 ft | 425 kts | 211° |
| 2026-04-14 06:05 | -52.28433 | 138.18305 | 35362 ft | 425 kts | 209° |
| 2026-04-14 06:06 | -52.33681 | 138.13879 | 35366 ft | 424 kts | 210° |
| 2026-04-14 06:06 | -52.38931 | 138.09449 | 35346 ft | 424 kts | 211° |
| 2026-04-14 06:07 | -52.44176 | 138.05008 | 35341 ft | 425 kts | 210° |
| 2026-04-14 06:07 | -52.49424 | 138.00549 | 35345 ft | 425 kts | 210° |
| 2026-04-14 06:08 | -52.54686 | 137.96075 | 35342 ft | 426 kts | 211° |
| 2026-04-14 06:08 | -52.59954 | 137.91577 | 35341 ft | 427 kts | 211° |
| 2026-04-14 06:09 | -52.65221 | 137.87060 | 35336 ft | 427 kts | 210° |
| 2026-04-14 06:09 | -52.70460 | 137.82551 | 35324 ft | 428 kts | 210° |
| 2026-04-14 06:10 | -52.75754 | 137.78005 | 35324 ft | 429 kts | 209° |
| 2026-04-14 06:10 | -52.81051 | 137.73444 | 35330 ft | 428 kts | 210° |
| 2026-04-14 06:11 | -52.86331 | 137.68871 | 35327 ft | 428 kts | 211° |
| 2026-04-14 06:11 | -52.91604 | 137.64282 | 35301 ft | 428 kts | 211° |
| 2026-04-14 06:12 | -52.96869 | 137.59689 | 35310 ft | 427 kts | 210° |
| 2026-04-14 06:12 | -53.02102 | 137.55119 | 35301 ft | 428 kts | 211° |
| 2026-04-14 06:13 | -53.07374 | 137.50508 | 35299 ft | 428 kts | 210° |
| 2026-04-14 06:13 | -53.12640 | 137.45887 | 35317 ft | 428 kts | 211° |
| 2026-04-14 06:14 | -53.17910 | 137.41253 | 35299 ft | 428 kts | 211° |
| 2026-04-14 06:14 | -53.23185 | 137.36608 | 35285 ft | 429 kts | 211° |
| 2026-04-14 06:15 | -53.28472 | 137.31926 | 35282 ft | 430 kts | 211° |
| 2026-04-14 06:15 | -53.33760 | 137.27228 | 35277 ft | 431 kts | 212° |
| 2026-04-14 06:16 | -53.39057 | 137.22518 | 35282 ft | 431 kts | 211° |
| 2026-04-14 06:16 | -53.44350 | 137.17792 | 35284 ft | 431 kts | 211° |
| 2026-04-14 06:17 | -53.49605 | 137.13076 | 35269 ft | 431 kts | 212° |
| 2026-04-14 06:17 | -53.54893 | 137.08328 | 35262 ft | 432 kts | 211° |
| 2026-04-14 06:18 | -53.60191 | 137.03563 | 35272 ft | 432 kts | 210° |
| 2026-04-14 06:18 | -53.65485 | 136.98789 | 35273 ft | 432 kts | 211° |
| 2026-04-14 06:19 | -53.70781 | 136.93999 | 35271 ft | 432 kts | 211° |
| 2026-04-14 06:19 | -53.76073 | 136.89178 | 35260 ft | 432 kts | 211° |
| 2026-04-14 06:20 | -53.81358 | 136.84359 | 35264 ft | 432 kts | 211° |
| 2026-04-14 06:20 | -53.86655 | 136.79533 | 35262 ft | 433 kts | 211° |
| 2026-04-14 06:21 | -53.91957 | 136.74682 | 35253 ft | 433 kts | 210° |
| 2026-04-14 06:21 | -53.97226 | 136.69829 | 35251 ft | 434 kts | 211° |
| 2026-04-14 06:22 | -54.02536 | 136.64945 | 35234 ft | 434 kts | 212° |
| 2026-04-14 06:22 | -54.07853 | 136.60040 | 35237 ft | 435 kts | 211° |
| 2026-04-14 06:23 | -54.13164 | 136.55101 | 35236 ft | 435 kts | 211° |
| 2026-04-14 06:23 | -54.18474 | 136.50158 | 35237 ft | 435 kts | 212° |
| 2026-04-14 06:24 | -54.23784 | 136.45212 | 35223 ft | 435 kts | 211° |
| 2026-04-14 06:24 | -54.29093 | 136.40253 | 35216 ft | 435 kts | 210° |
| 2026-04-14 06:25 | -54.34401 | 136.35289 | 35217 ft | 435 kts | 211° |
| 2026-04-14 06:25 | -54.39707 | 136.30298 | 35217 ft | 435 kts | 211° |
| 2026-04-14 06:26 | -54.45005 | 136.25285 | 35214 ft | 435 kts | 212° |
| 2026-04-14 06:26 | -54.50297 | 136.20260 | 35209 ft | 435 kts | 211° |
| 2026-04-14 06:27 | -54.55596 | 136.15232 | 35195 ft | 435 kts | 211° |
| 2026-04-14 06:27 | -54.60911 | 136.10189 | 35185 ft | 437 kts | 211° |
| 2026-04-14 06:28 | -54.66205 | 136.05152 | 35181 ft | 438 kts | 210° |
| 2026-04-14 06:28 | -54.71533 | 136.00042 | 35178 ft | 438 kts | 211° |
| 2026-04-14 06:29 | -54.76863 | 135.94896 | 35186 ft | 439 kts | 211° |
| 2026-04-14 06:29 | -54.82200 | 135.89765 | 35170 ft | 439 kts | 211° |
| 2026-04-14 06:30 | -54.87539 | 135.84609 | 35176 ft | 439 kts | 211° |
| 2026-04-14 06:30 | -54.92878 | 135.79440 | 35164 ft | 439 kts | 212° |
| 2026-04-14 06:31 | -54.98210 | 135.74256 | 35165 ft | 439 kts | 211° |
| 2026-04-14 06:31 | -55.03537 | 135.69056 | 35155 ft | 439 kts | 210° |
| 2026-04-14 06:32 | -55.08870 | 135.63839 | 35155 ft | 439 kts | 211° |
| 2026-04-14 06:32 | -55.14199 | 135.58609 | 35146 ft | 440 kts | 211° |
| 2026-04-14 06:33 | -55.19533 | 135.53353 | 35141 ft | 440 kts | 211° |
| 2026-04-14 06:33 | -55.24866 | 135.48086 | 35138 ft | 440 kts | 211° |
| 2026-04-14 06:34 | -55.32852 | 135.40176 | 35130 ft | 442 kts | 211° |
| 2026-04-14 06:34 | -55.38212 | 135.34841 | 35114 ft | 443 kts | 211° |
| 2026-04-14 06:35 | -55.43576 | 135.29475 | 35118 ft | 443 kts | 210° |
| 2026-04-14 06:35 | -55.48946 | 135.24100 | 35122 ft | 444 kts | 211° |
| 2026-04-14 06:36 | -55.53407 | 135.19628 | 35119 ft | 443 kts | 211° |
| 2026-04-14 06:36 | -55.58759 | 135.14243 | 35121 ft | 443 kts | 211° |
| 2026-04-14 06:37 | -55.64127 | 135.08811 | 35127 ft | 443 kts | 211° |
| 2026-04-14 06:37 | -55.69483 | 135.03370 | 35117 ft | 444 kts | 211° |
| 2026-04-14 06:38 | -55.74841 | 134.97922 | 35125 ft | 444 kts | 211° |
| 2026-04-14 06:38 | -55.80199 | 134.92468 | 35134 ft | 444 kts | 211° |
| 2026-04-14 06:39 | -55.85547 | 134.86992 | 35135 ft | 444 kts | 211° |
| 2026-04-14 06:39 | -55.90895 | 134.81496 | 35144 ft | 444 kts | 211° |
| 2026-04-14 06:40 | -55.96216 | 134.76014 | 35123 ft | 445 kts | 211° |
| 2026-04-14 06:40 | -56.01618 | 134.70448 | 35128 ft | 446 kts | 211° |
| 2026-04-14 06:41 | -56.06953 | 134.64906 | 35131 ft | 447 kts | 211° |
| 2026-04-14 06:41 | -56.12332 | 134.59307 | 35143 ft | 447 kts | 211° |
| 2026-04-14 06:42 | -56.17711 | 134.53694 | 35148 ft | 447 kts | 211° |
| 2026-04-14 06:42 | -56.23091 | 134.48069 | 35138 ft | 447 kts | 211° |
| 2026-04-14 06:43 | -56.28465 | 134.42430 | 35133 ft | 447 kts | 211° |
| 2026-04-14 06:43 | -56.33837 | 134.36759 | 35156 ft | 447 kts | 212° |
| 2026-04-14 06:44 | -56.39201 | 134.31063 | 35160 ft | 447 kts | 212° |
| 2026-04-14 06:44 | -56.44570 | 134.25369 | 35169 ft | 447 kts | 211° |
| 2026-04-14 06:45 | -56.49929 | 134.19667 | 35157 ft | 447 kts | 211° |
| 2026-04-14 06:45 | -56.55285 | 134.13953 | 35165 ft | 447 kts | 212° |
| 2026-04-14 06:46 | -56.63276 | 134.05394 | 35175 ft | 446 kts | 211° |
| 2026-04-14 06:47 | -56.68625 | 133.99626 | 35163 ft | 447 kts | 212° |
| 2026-04-14 06:47 | -56.73980 | 133.93843 | 35170 ft | 448 kts | 212° |
| 2026-04-14 06:48 | -56.79346 | 133.88035 | 35165 ft | 449 kts | 211° |
| 2026-04-14 06:48 | -56.84710 | 133.82186 | 35180 ft | 449 kts | 212° |
| 2026-04-14 06:49 | -56.90072 | 133.76321 | 35183 ft | 449 kts | 212° |
| 2026-04-14 06:49 | -56.95435 | 133.70462 | 35200 ft | 448 kts | 212° |
| 2026-04-14 06:50 | -57.00754 | 133.64634 | 35200 ft | 448 kts | 212° |
| 2026-04-14 06:50 | -57.06099 | 133.58739 | 35205 ft | 448 kts | 212° |
| 2026-04-14 06:51 | -57.11440 | 133.52813 | 35219 ft | 448 kts | 212° |
| 2026-04-14 06:51 | -57.16775 | 133.46882 | 35213 ft | 448 kts | 212° |
| 2026-04-14 06:52 | -57.22111 | 133.40948 | 35221 ft | 448 kts | 212° |
| 2026-04-14 06:52 | -57.27449 | 133.35005 | 35218 ft | 448 kts | 212° |
| 2026-04-14 06:53 | -57.32778 | 133.29039 | 35233 ft | 448 kts | 212° |
| 2026-04-14 06:53 | -57.38095 | 133.23029 | 35206 ft | 449 kts | 212° |
| 2026-04-14 06:54 | -57.43436 | 133.16997 | 35218 ft | 450 kts | 212° |
| 2026-04-14 06:54 | -57.48789 | 133.10926 | 35222 ft | 451 kts | 212° |
| 2026-04-14 06:55 | -57.54148 | 133.04822 | 35238 ft | 452 kts | 212° |
| 2026-04-14 06:55 | -57.59509 | 132.98700 | 35242 ft | 453 kts | 212° |
| 2026-04-14 06:56 | -57.64967 | 132.92462 | 35261 ft | 467 kts | 212° |
| 2026-04-14 06:56 | -57.70573 | 132.86037 | 35262 ft | 479 kts | 212° |
| 2026-04-14 06:57 | -57.76258 | 132.79490 | 35280 ft | 485 kts | 212° |
| 2026-04-14 06:57 | -57.82001 | 132.72842 | 35280 ft | 485 kts | 212° |
| 2026-04-14 06:58 | -57.87745 | 132.66150 | 35286 ft | 486 kts | 212° |
| 2026-04-14 06:58 | -57.93496 | 132.59422 | 35300 ft | 486 kts | 212° |
| 2026-04-14 06:59 | -57.99233 | 132.52700 | 35297 ft | 485 kts | 212° |
| 2026-04-14 06:59 | -58.04970 | 132.45964 | 35308 ft | 486 kts | 212° |
| 2026-04-14 07:00 | -58.10708 | 132.39202 | 35311 ft | 486 kts | 213° |
| 2026-04-14 07:00 | -58.16429 | 132.32417 | 35328 ft | 486 kts | 213° |
| 2026-04-14 07:01 | -58.22116 | 132.25642 | 35325 ft | 485 kts | 213° |
| 2026-04-14 07:01 | -58.27831 | 132.18827 | 35332 ft | 484 kts | 213° |
| 2026-04-14 07:02 | -58.33534 | 132.12003 | 35331 ft | 484 kts | 213° |
| 2026-04-14 07:02 | -58.39235 | 132.05159 | 35341 ft | 484 kts | 213° |
| 2026-04-14 07:03 | -58.44925 | 131.98274 | 35342 ft | 484 kts | 213° |
| 2026-04-14 07:03 | -58.50609 | 131.91368 | 35353 ft | 483 kts | 213° |
| 2026-04-14 07:04 | -58.56285 | 131.84449 | 35362 ft | 483 kts | 213° |
| 2026-04-14 07:04 | -58.61956 | 131.77521 | 35356 ft | 483 kts | 213° |
| 2026-04-14 07:05 | -58.67622 | 131.70570 | 35362 ft | 483 kts | 213° |
| 2026-04-14 07:05 | -58.73281 | 131.63615 | 35364 ft | 483 kts | 213° |
| 2026-04-14 07:06 | -58.78930 | 131.56629 | 35358 ft | 483 kts | 213° |
| 2026-04-14 07:06 | -58.84589 | 131.49601 | 35339 ft | 485 kts | 213° |
| 2026-04-14 07:07 | -58.90272 | 131.42531 | 35358 ft | 486 kts | 214° |
| 2026-04-14 07:07 | -58.95954 | 131.35428 | 35366 ft | 486 kts | 214° |
| 2026-04-14 07:08 | -59.01631 | 131.28282 | 35384 ft | 487 kts | 214° |
| 2026-04-14 07:08 | -59.07310 | 131.21124 | 35386 ft | 487 kts | 214° |
| 2026-04-14 07:09 | -59.12994 | 131.13929 | 35399 ft | 487 kts | 214° |
| 2026-04-14 07:09 | -59.18668 | 131.06715 | 35418 ft | 487 kts | 214° |
| 2026-04-14 07:10 | -59.24299 | 130.99518 | 35420 ft | 487 kts | 214° |
| 2026-04-14 07:10 | -59.29963 | 130.92257 | 35434 ft | 487 kts | 214° |
| 2026-04-14 07:11 | -59.35628 | 130.84975 | 35430 ft | 487 kts | 215° |
| 2026-04-14 07:11 | -59.41280 | 130.77672 | 35439 ft | 487 kts | 214° |
| 2026-04-14 07:12 | -59.46927 | 130.70349 | 35433 ft | 486 kts | 215° |
| 2026-04-14 07:12 | -59.52563 | 130.63002 | 35441 ft | 485 kts | 215° |
| 2026-04-14 07:13 | -59.58193 | 130.55626 | 35439 ft | 485 kts | 215° |
| 2026-04-14 07:13 | -59.63816 | 130.48242 | 35447 ft | 485 kts | 215° |
| 2026-04-14 07:14 | -59.69439 | 130.40841 | 35451 ft | 485 kts | 215° |
| 2026-04-14 07:14 | -59.75059 | 130.33418 | 35459 ft | 485 kts | 215° |
| 2026-04-14 07:15 | -59.80659 | 130.25957 | 35454 ft | 485 kts | 216° |
| 2026-04-14 07:15 | -59.86250 | 130.18481 | 35464 ft | 485 kts | 216° |
| 2026-04-14 07:16 | -59.91860 | 130.10970 | 35481 ft | 485 kts | 216° |
| 2026-04-14 07:16 | -59.97459 | 130.03427 | 35471 ft | 486 kts | 216° |
| 2026-04-14 07:17 | -60.02566 | 129.94839 | 35483 ft | 482 kts | 227° |
| 2026-04-14 07:17 | -60.07283 | 129.85274 | 35482 ft | 482 kts | 227° |
| 2026-04-14 07:18 | -60.11995 | 129.75694 | 35491 ft | 483 kts | 227° |
| 2026-04-14 07:18 | -60.16704 | 129.66092 | 35501 ft | 482 kts | 228° |
| 2026-04-14 07:19 | -60.21397 | 129.56475 | 35513 ft | 481 kts | 228° |
| 2026-04-14 07:19 | -60.26073 | 129.46839 | 35509 ft | 481 kts | 228° |
| 2026-04-14 07:20 | -60.30732 | 129.37186 | 35510 ft | 480 kts | 227° |
| 2026-04-14 07:20 | -60.35389 | 129.27509 | 35506 ft | 480 kts | 228° |
| 2026-04-14 07:21 | -60.40038 | 129.17818 | 35529 ft | 480 kts | 228° |
| 2026-04-14 07:21 | -60.44674 | 129.08108 | 35530 ft | 479 kts | 228° |
| 2026-04-14 07:22 | -60.49261 | 128.98444 | 35530 ft | 479 kts | 228° |
| 2026-04-14 07:22 | -60.53123 | 128.90264 | 35523 ft | 479 kts | 229° |
| 2026-04-14 07:23 | -60.58482 | 128.78878 | 35547 ft | 479 kts | 228° |
| 2026-04-14 07:23 | -60.63082 | 128.69065 | 35560 ft | 478 kts | 228° |
| 2026-04-14 07:24 | -60.66920 | 128.60837 | 35559 ft | 478 kts | 228° |
| 2026-04-14 07:24 | -60.71498 | 128.50991 | 35558 ft | 478 kts | 228° |
| 2026-04-14 07:25 | -60.76065 | 128.41132 | 35554 ft | 478 kts | 228° |
| 2026-04-14 07:25 | -60.80588 | 128.31299 | 35582 ft | 478 kts | 229° |
| 2026-04-14 07:26 | -60.85137 | 128.21387 | 35584 ft | 477 kts | 228° |
| 2026-04-14 07:26 | -60.89676 | 128.11465 | 35590 ft | 476 kts | 229° |
| 2026-04-14 07:27 | -60.94201 | 128.01518 | 35575 ft | 476 kts | 229° |
| 2026-04-14 07:27 | -60.98715 | 127.91544 | 35583 ft | 475 kts | 229° |
| 2026-04-14 07:28 | -61.03213 | 127.81549 | 35574 ft | 475 kts | 229° |
| 2026-04-14 07:28 | -61.07707 | 127.71536 | 35595 ft | 475 kts | 229° |
| 2026-04-14 07:29 | -61.12191 | 127.61490 | 35582 ft | 475 kts | 229° |
| 2026-04-14 07:29 | -61.16674 | 127.51392 | 35588 ft | 476 kts | 229° |
| 2026-04-14 07:30 | -61.21148 | 127.41295 | 35585 ft | 475 kts | 230° |
| 2026-04-14 07:30 | -61.25618 | 127.31182 | 35599 ft | 475 kts | 229° |
| 2026-04-14 07:31 | -61.30059 | 127.21046 | 35606 ft | 474 kts | 229° |
| 2026-04-14 07:31 | -61.34487 | 127.10888 | 35602 ft | 473 kts | 230° |
| 2026-04-14 07:32 | -61.38896 | 127.00726 | 35602 ft | 473 kts | 229° |
| 2026-04-14 07:32 | -61.43311 | 126.90521 | 35605 ft | 473 kts | 229° |
| 2026-04-14 07:33 | -61.47682 | 126.80386 | 35613 ft | 472 kts | 230° |
| 2026-04-14 07:33 | -61.52065 | 126.70168 | 35617 ft | 471 kts | 230° |
| 2026-04-14 07:34 | -61.60790 | 126.49659 | 35612 ft | 470 kts | 230° |
| 2026-04-14 07:35 | -61.65146 | 126.39396 | 35610 ft | 470 kts | 230° |
| 2026-04-14 07:35 | -61.69489 | 126.29103 | 35624 ft | 470 kts | 230° |
| 2026-04-14 07:36 | -61.73805 | 126.18759 | 35621 ft | 469 kts | 230° |
| 2026-04-14 07:36 | -61.78114 | 126.08402 | 35623 ft | 469 kts | 230° |
| 2026-04-14 07:37 | -61.82423 | 125.98037 | 35621 ft | 469 kts | 230° |
| 2026-04-14 07:37 | -61.86692 | 125.87716 | 35622 ft | 469 kts | 230° |
| 2026-04-14 07:38 | -61.90990 | 125.77292 | 35626 ft | 469 kts | 230° |
| 2026-04-14 07:38 | -61.95277 | 125.66836 | 35629 ft | 469 kts | 231° |
| 2026-04-14 07:39 | -61.99550 | 125.56348 | 35625 ft | 469 kts | 231° |
| 2026-04-14 07:39 | -62.03814 | 125.45817 | 35630 ft | 469 kts | 231° |
| 2026-04-14 07:40 | -62.08072 | 125.35277 | 35641 ft | 469 kts | 231° |
| 2026-04-14 07:40 | -62.12326 | 125.24696 | 35642 ft | 469 kts | 231° |
| 2026-04-14 07:41 | -62.16557 | 125.14103 | 35646 ft | 468 kts | 231° |
| 2026-04-14 07:41 | -62.20781 | 125.03477 | 35638 ft | 468 kts | 231° |
| 2026-04-14 07:42 | -62.24998 | 124.92839 | 35638 ft | 468 kts | 231° |
| 2026-04-14 07:42 | -62.29214 | 124.82172 | 35650 ft | 468 kts | 231° |
| 2026-04-14 07:43 | -62.33414 | 124.71483 | 35654 ft | 467 kts | 231° |
| 2026-04-14 07:43 | -62.37566 | 124.60845 | 35651 ft | 467 kts | 231° |
| 2026-04-14 07:44 | -62.41737 | 124.50110 | 35648 ft | 467 kts | 231° |
| 2026-04-14 07:44 | -62.45902 | 124.39370 | 35645 ft | 466 kts | 232° |
| 2026-04-14 07:45 | -62.50049 | 124.28586 | 35664 ft | 466 kts | 232° |
| 2026-04-14 07:45 | -62.54188 | 124.17785 | 35659 ft | 466 kts | 232° |
| 2026-04-14 07:46 | -62.58318 | 124.06968 | 35654 ft | 465 kts | 232° |
| 2026-04-14 07:46 | -62.62436 | 123.96119 | 35650 ft | 465 kts | 232° |
| 2026-04-14 07:47 | -62.66535 | 123.85241 | 35649 ft | 465 kts | 232° |
| 2026-04-14 07:47 | -62.70635 | 123.74354 | 35656 ft | 465 kts | 232° |
| 2026-04-14 07:48 | -62.74706 | 123.63515 | 35658 ft | 465 kts | 232° |
| 2026-04-14 07:48 | -62.78780 | 123.52574 | 35657 ft | 464 kts | 232° |
| 2026-04-14 07:49 | -62.82839 | 123.41594 | 35655 ft | 464 kts | 232° |
| 2026-04-14 07:49 | -62.86897 | 123.30596 | 35655 ft | 464 kts | 232° |
| 2026-04-14 07:50 | -62.90944 | 123.19570 | 35653 ft | 464 kts | 233° |
| 2026-04-14 07:50 | -62.94980 | 123.08499 | 35662 ft | 464 kts | 233° |
| 2026-04-14 07:51 | -62.99008 | 122.97407 | 35662 ft | 464 kts | 233° |
| 2026-04-14 07:51 | -63.03026 | 122.86287 | 35662 ft | 464 kts | 233° |
| 2026-04-14 07:52 | -63.07040 | 122.75155 | 35659 ft | 464 kts | 233° |
| 2026-04-14 07:52 | -63.11021 | 122.64042 | 35660 ft | 464 kts | 233° |
| 2026-04-14 07:53 | -63.15007 | 122.52836 | 35660 ft | 464 kts | 233° |
| 2026-04-14 07:53 | -63.18990 | 122.41600 | 35667 ft | 464 kts | 233° |
| 2026-04-14 07:54 | -63.22968 | 122.30327 | 35662 ft | 464 kts | 233° |
| 2026-04-14 07:54 | -63.26937 | 122.19018 | 35660 ft | 464 kts | 233° |
| 2026-04-14 07:55 | -63.30901 | 122.07665 | 35660 ft | 465 kts | 233° |
| 2026-04-14 07:55 | -63.34863 | 121.96270 | 35669 ft | 465 kts | 233° |
| 2026-04-14 07:56 | -63.38813 | 121.84843 | 35668 ft | 465 kts | 234° |
| 2026-04-14 07:56 | -63.42751 | 121.73400 | 35671 ft | 465 kts | 234° |
| 2026-04-14 07:57 | -63.46680 | 121.61914 | 35672 ft | 465 kts | 234° |
| 2026-04-14 07:57 | -63.50601 | 121.50388 | 35671 ft | 465 kts | 234° |
| 2026-04-14 07:58 | -63.54516 | 121.38832 | 35681 ft | 465 kts | 234° |
| 2026-04-14 07:58 | -63.58422 | 121.27246 | 35677 ft | 465 kts | 234° |
| 2026-04-14 07:59 | -63.62297 | 121.15707 | 35675 ft | 465 kts | 234° |
| 2026-04-14 07:59 | -63.66183 | 121.04060 | 35673 ft | 465 kts | 234° |
| 2026-04-14 08:00 | -63.70057 | 120.92378 | 35668 ft | 465 kts | 234° |
| 2026-04-14 08:00 | -63.73916 | 120.80677 | 35677 ft | 465 kts | 235° |
| 2026-04-14 08:01 | -63.77772 | 120.68946 | 35672 ft | 465 kts | 235° |
| 2026-04-14 08:01 | -63.81617 | 120.57180 | 35664 ft | 465 kts | 235° |
| 2026-04-14 08:02 | -63.85451 | 120.45388 | 35661 ft | 465 kts | 235° |
| 2026-04-14 08:02 | -63.89277 | 120.33565 | 35658 ft | 465 kts | 235° |
| 2026-04-14 08:03 | -63.93062 | 120.21787 | 35664 ft | 465 kts | 236° |
| 2026-04-14 08:03 | -63.96871 | 120.09889 | 35654 ft | 465 kts | 236° |
| 2026-04-14 08:04 | -64.00669 | 119.97967 | 35656 ft | 465 kts | 234° |
| 2026-04-14 08:04 | -64.05031 | 119.87017 | 35649 ft | 468 kts | 225° |
| 2026-04-14 08:05 | -64.09809 | 119.76920 | 35644 ft | 468 kts | 224° |
| 2026-04-14 08:05 | -64.14514 | 119.66637 | 35663 ft | 468 kts | 227° |
| 2026-04-14 08:06 | -64.19074 | 119.55963 | 35658 ft | 468 kts | 228° |
| 2026-04-14 08:06 | -64.23568 | 119.45165 | 35653 ft | 468 kts | 228° |
| 2026-04-14 08:07 | -64.28060 | 119.34458 | 35655 ft | 468 kts | 227° |
| 2026-04-14 08:07 | -64.32609 | 119.23681 | 35653 ft | 469 kts | 227° |
| 2026-04-14 08:08 | -64.37154 | 119.12875 | 35649 ft | 469 kts | 228° |
| 2026-04-14 08:08 | -64.41688 | 119.01993 | 35656 ft | 470 kts | 228° |
| 2026-04-14 08:09 | -64.46208 | 118.91069 | 35662 ft | 470 kts | 228° |
| 2026-04-14 08:09 | -64.50720 | 118.80099 | 35655 ft | 470 kts | 228° |
| 2026-04-14 08:10 | -64.55228 | 118.69119 | 35652 ft | 469 kts | 228° |
| 2026-04-14 08:10 | -64.59726 | 118.58113 | 35650 ft | 469 kts | 229° |
| 2026-04-14 08:11 | -64.64217 | 118.47057 | 35654 ft | 469 kts | 229° |
| 2026-04-14 08:11 | -64.68698 | 118.35965 | 35646 ft | 470 kts | 229° |
| 2026-04-14 08:12 | -64.73137 | 118.24891 | 35659 ft | 470 kts | 229° |
| 2026-04-14 08:12 | -64.77600 | 118.13718 | 35656 ft | 470 kts | 229° |
| 2026-04-14 08:13 | -64.82063 | 118.02516 | 35656 ft | 470 kts | 229° |
| 2026-04-14 08:13 | -64.86508 | 117.91265 | 35670 ft | 470 kts | 229° |
| 2026-04-14 08:14 | -64.90954 | 117.79960 | 35666 ft | 470 kts | 229° |
| 2026-04-14 08:14 | -64.95391 | 117.68625 | 35660 ft | 470 kts | 230° |
| 2026-04-14 08:15 | -64.99069 | 117.59178 | 35653 ft | 470 kts | 230° |
| 2026-04-14 08:15 | -65.03497 | 117.47787 | 35657 ft | 470 kts | 230° |
| 2026-04-14 08:16 | -65.07918 | 117.36343 | 35656 ft | 470 kts | 230° |
| 2026-04-14 08:16 | -65.12327 | 117.24840 | 35667 ft | 471 kts | 230° |
| 2026-04-14 08:17 | -65.16728 | 117.13295 | 35663 ft | 471 kts | 230° |
| 2026-04-14 08:17 | -65.21129 | 117.01707 | 35670 ft | 472 kts | 230° |
| 2026-04-14 08:18 | -65.25513 | 116.90055 | 35673 ft | 472 kts | 230° |
| 2026-04-14 08:18 | -65.29901 | 116.78383 | 35684 ft | 472 kts | 230° |
| 2026-04-14 08:19 | -65.34288 | 116.66661 | 35687 ft | 472 kts | 230° |
| 2026-04-14 08:19 | -65.38629 | 116.54973 | 35688 ft | 472 kts | 230° |
| 2026-04-14 08:20 | -65.42989 | 116.43181 | 35687 ft | 472 kts | 230° |
| 2026-04-14 08:20 | -65.47337 | 116.31357 | 35689 ft | 472 kts | 231° |
| 2026-04-14 08:21 | -65.51166 | 116.20892 | 35692 ft | 472 kts | 231° |
| 2026-04-14 08:21 | -65.55495 | 116.08968 | 35711 ft | 472 kts | 231° |
| 2026-04-14 08:22 | -65.59815 | 115.97000 | 35712 ft | 473 kts | 231° |
| 2026-04-14 08:22 | -65.64135 | 115.84987 | 35708 ft | 473 kts | 231° |
| 2026-04-14 08:23 | -65.68428 | 115.73029 | 35708 ft | 473 kts | 231° |
| 2026-04-14 08:23 | -65.72739 | 115.60944 | 35708 ft | 474 kts | 231° |
| 2026-04-14 08:24 | -65.77032 | 115.48782 | 35713 ft | 474 kts | 231° |
| 2026-04-14 08:24 | -65.81316 | 115.36577 | 35641 ft | 472 kts | 231° |
| 2026-04-14 08:24 | -65.83447 | 115.30490 | 34995 ft | 471 kts | 232° |
| 2026-04-14 08:25 | -65.85568 | 115.24420 | 34445 ft | 467 kts | 232° |
| 2026-04-14 08:25 | -65.87665 | 115.18421 | 34000 ft | 461 kts | 232° |
| 2026-04-14 08:25 | -65.89735 | 115.12482 | 33481 ft | 456 kts | 232° |
| 2026-04-14 08:25 | -65.91772 | 115.06611 | 32906 ft | 451 kts | 232° |
| 2026-04-14 08:26 | -65.93788 | 115.00781 | 32338 ft | 446 kts | 232° |
| 2026-04-14 08:26 | -65.95752 | 114.95087 | 31791 ft | 441 kts | 232° |
| 2026-04-14 08:26 | -65.97725 | 114.89352 | 31243 ft | 437 kts | 232° |
| 2026-04-14 08:26 | -65.99680 | 114.83648 | 30378 ft | 440 kts | 232° |
| 2026-04-14 08:27 | -66.01664 | 114.77838 | 29893 ft | 447 kts | 232° |
| 2026-04-14 08:27 | -66.03675 | 114.71932 | 29366 ft | 450 kts | 232° |
| 2026-04-14 08:27 | -66.05680 | 114.66034 | 28894 ft | 448 kts | 232° |
| 2026-04-14 08:27 | -66.07673 | 114.60163 | 28411 ft | 445 kts | 232° |
| 2026-04-14 08:28 | -66.09647 | 114.54332 | 27940 ft | 441 kts | 232° |
| 2026-04-14 08:28 | -66.11598 | 114.48547 | 27483 ft | 437 kts | 232° |
| 2026-04-14 08:28 | -66.13533 | 114.42795 | 27013 ft | 433 kts | 232° |
| 2026-04-14 08:28 | -66.15448 | 114.37077 | 26543 ft | 430 kts | 233° |
| 2026-04-14 08:29 | -66.17340 | 114.31413 | 26070 ft | 426 kts | 232° |
| 2026-04-14 08:29 | -66.19218 | 114.25794 | 25585 ft | 422 kts | 233° |
| 2026-04-14 08:29 | -66.21084 | 114.20203 | 25093 ft | 418 kts | 233° |